createdAt,value
2018-10-17T00:00:18.184Z,13.65
2018-10-17T00:02:47.167Z,13.82
2018-10-17T00:05:16.073Z,13.79
2018-10-17T00:07:44.867Z,13.85
2018-10-17T00:10:15.007Z,13.85
2018-10-17T00:12:43.889Z,13.88
2018-10-17T00:15:12.700Z,13.83
2018-10-17T00:17:41.579Z,13.80
2018-10-17T00:20:11.031Z,13.78
2018-10-17T00:22:39.983Z,13.79
2018-10-17T00:25:09.040Z,13.75
2018-10-17T00:27:37.891Z,13.71
2018-10-17T00:30:10.168Z,13.65
2018-10-17T00:32:39.045Z,13.63
2018-10-17T00:35:08.798Z,13.52
2018-10-17T00:37:37.726Z,13.51
2018-10-17T00:40:07.160Z,13.47
2018-10-17T00:42:36.408Z,13.43
2018-10-17T00:45:06.231Z,13.38
2018-10-17T00:47:35.155Z,13.28
2018-10-17T00:50:04.711Z,13.28
2018-10-17T00:52:33.924Z,13.31
2018-10-17T00:55:02.788Z,13.29
2018-10-17T00:57:31.648Z,13.28
2018-10-17T01:00:00.462Z,13.37
2018-10-17T01:02:29.492Z,13.29
2018-10-17T01:04:58.387Z,13.09
2018-10-17T01:07:27.355Z,13.13
2018-10-17T01:09:56.233Z,13.21
2018-10-17T01:12:25.029Z,13.14
2018-10-17T01:14:53.916Z,13.15
2018-10-17T01:17:23.000Z,13.14
2018-10-17T01:19:51.837Z,13.13
2018-10-17T01:22:20.728Z,13.12
2018-10-17T01:24:49.646Z,13.14
2018-10-17T01:27:18.596Z,13.14
2018-10-17T01:29:47.478Z,13.14
2018-10-17T01:32:16.347Z,13.07
2018-10-17T01:34:45.231Z,12.97
2018-10-17T01:37:14.147Z,12.94
2018-10-17T01:39:43.180Z,12.94
2018-10-17T01:42:12.062Z,12.87
2018-10-17T01:44:40.920Z,12.80
2018-10-17T01:47:09.769Z,12.73
2018-10-17T01:49:38.649Z,12.74
2018-10-17T01:52:07.837Z,12.68
2018-10-17T01:54:36.691Z,12.70
2018-10-17T01:57:06.347Z,12.74
2018-10-17T01:59:35.384Z,12.63
2018-10-17T02:02:04.489Z,12.70
2018-10-17T02:04:33.401Z,12.76
2018-10-17T02:07:02.288Z,12.70
2018-10-17T02:09:31.103Z,12.61
2018-10-17T02:11:59.949Z,12.58
2018-10-17T02:14:28.753Z,12.53
2018-10-17T02:16:57.788Z,12.66
2018-10-17T02:19:26.618Z,12.79
2018-10-17T02:21:55.485Z,12.72
2018-10-17T02:24:24.288Z,12.87
2018-10-17T02:26:53.182Z,12.85
2018-10-17T02:29:22.103Z,12.88
2018-10-17T02:31:51.022Z,12.91
2018-10-17T02:34:19.832Z,12.79
2018-10-17T02:36:48.731Z,12.81
2018-10-17T02:39:17.579Z,12.73
2018-10-17T02:41:46.521Z,12.61
2018-10-17T02:44:15.378Z,12.39
2018-10-17T02:46:44.246Z,12.35
2018-10-17T02:49:13.150Z,12.25
2018-10-17T02:51:41.942Z,12.08
2018-10-17T02:54:10.906Z,12.14
2018-10-17T02:56:39.760Z,12.33
2018-10-17T02:59:08.657Z,12.34
2018-10-17T03:01:37.558Z,12.30
2018-10-17T03:04:06.397Z,12.27
2018-10-17T03:06:35.337Z,12.27
2018-10-17T03:09:06.283Z,12.39
2018-10-17T03:11:35.160Z,12.34
2018-10-17T03:14:04.004Z,12.27
2018-10-17T03:16:33.199Z,12.25
2018-10-17T03:19:02.229Z,12.22
2018-10-17T03:21:31.056Z,12.18
2018-10-17T03:23:59.940Z,12.21
2018-10-17T03:26:28.968Z,12.22
2018-10-17T03:28:57.864Z,12.20
2018-10-17T03:31:26.951Z,12.32
2018-10-17T03:33:55.741Z,12.15
2018-10-17T03:36:24.859Z,12.22
2018-10-17T03:38:53.724Z,12.28
2018-10-17T03:41:22.556Z,12.20
2018-10-17T03:43:51.495Z,12.22
2018-10-17T03:46:20.305Z,12.16
2018-10-17T03:48:49.166Z,12.14
2018-10-17T03:51:18.108Z,12.03
2018-10-17T03:53:46.984Z,12.00
2018-10-17T03:56:15.816Z,12.08
2018-10-17T03:58:44.731Z,12.04
2018-10-17T04:01:13.683Z,12.14
2018-10-17T04:03:42.412Z,12.05
2018-10-17T04:06:11.325Z,12.06
2018-10-17T04:08:40.239Z,11.90
2018-10-17T04:11:09.153Z,11.88
2018-10-17T04:13:38.161Z,11.81
2018-10-17T04:16:07.099Z,11.79
2018-10-17T04:18:35.901Z,11.75
2018-10-17T04:21:05.204Z,11.79
2018-10-17T04:23:34.024Z,11.78
2018-10-17T04:26:02.948Z,11.74
2018-10-17T04:28:31.765Z,11.74
2018-10-17T04:31:00.762Z,11.81
2018-10-17T04:33:29.624Z,11.82
2018-10-17T04:35:58.790Z,11.91
2018-10-17T04:38:27.705Z,12.03
2018-10-17T04:40:56.617Z,12.01
2018-10-17T04:43:25.462Z,11.92
2018-10-17T04:45:54.475Z,11.88
2018-10-17T04:48:23.704Z,11.89
2018-10-17T04:50:52.594Z,11.87
2018-10-17T04:53:21.447Z,11.83
2018-10-17T04:55:50.349Z,11.82
2018-10-17T04:58:19.194Z,11.76
2018-10-17T05:00:47.985Z,11.73
2018-10-17T05:03:16.914Z,11.76
2018-10-17T05:05:45.813Z,11.82
2018-10-17T05:08:14.697Z,11.69
2018-10-17T05:10:43.580Z,11.59
2018-10-17T05:13:12.655Z,11.53
2018-10-17T05:15:41.277Z,11.43
2018-10-17T05:18:10.179Z,11.50
2018-10-17T05:20:39.007Z,11.65
2018-10-17T05:23:08.046Z,11.61
2018-10-17T05:25:36.889Z,11.51
2018-10-17T05:28:05.976Z,11.52
2018-10-17T05:30:40.918Z,11.49
2018-10-17T05:33:09.809Z,11.49
2018-10-17T05:35:38.665Z,11.52
2018-10-17T05:38:07.647Z,11.57
2018-10-17T05:40:36.496Z,11.50
2018-10-17T05:43:05.456Z,11.54
2018-10-17T05:45:34.352Z,11.57
2018-10-17T05:48:09.228Z,11.58
2018-10-17T05:50:38.057Z,11.54
2018-10-17T05:53:07.014Z,11.63
2018-10-17T05:55:35.945Z,11.69
2018-10-17T05:58:05.250Z,11.63
2018-10-17T06:00:34.151Z,11.58
2018-10-17T06:03:03.190Z,11.59
2018-10-17T06:05:32.069Z,11.70
2018-10-17T06:08:00.968Z,11.60
2018-10-17T06:10:29.865Z,11.55
2018-10-17T06:12:58.691Z,11.54
2018-10-17T06:15:27.540Z,11.56
2018-10-17T06:17:56.344Z,11.47
2018-10-17T06:20:25.621Z,11.61
2018-10-17T06:22:54.508Z,11.59
2018-10-17T06:25:23.404Z,11.67
2018-10-17T06:27:52.239Z,11.69
2018-10-17T06:30:21.149Z,11.76
2018-10-17T06:32:50.084Z,11.88
2018-10-17T06:35:19.077Z,11.91
2018-10-17T06:37:47.804Z,11.91
2018-10-17T06:40:16.677Z,11.83
2018-10-17T06:42:45.499Z,11.81
2018-10-17T06:45:14.477Z,11.83
2018-10-17T06:47:43.320Z,11.86
2018-10-17T06:50:12.180Z,12.02
2018-10-17T06:52:41.040Z,12.07
2018-10-17T06:55:10.075Z,12.12
2018-10-17T06:57:39.268Z,12.28
2018-10-17T07:00:09.478Z,12.45
2018-10-17T07:02:38.339Z,12.55
2018-10-17T07:05:08.281Z,12.77
2018-10-17T07:07:37.131Z,12.95
2018-10-17T07:10:06.221Z,12.99
2018-10-17T07:12:35.064Z,13.18
2018-10-17T07:15:04.753Z,13.28
2018-10-17T07:17:33.668Z,13.18
2018-10-17T07:20:02.540Z,13.44
2018-10-17T07:22:31.939Z,13.46
2018-10-17T07:25:00.824Z,13.62
2018-10-17T07:27:29.685Z,13.59
2018-10-17T07:29:58.485Z,13.72
2018-10-17T07:32:27.452Z,13.85
2018-10-17T07:34:56.391Z,14.00
2018-10-17T07:37:25.244Z,14.09
2018-10-17T07:39:54.093Z,14.11
2018-10-17T07:42:23.133Z,14.24
2018-10-17T07:44:51.924Z,14.23
2018-10-17T07:47:20.946Z,14.40
2018-10-17T07:49:49.788Z,14.56
2018-10-17T07:52:18.659Z,14.77
2018-10-17T07:54:47.448Z,14.74
2018-10-17T07:57:16.291Z,14.83
2018-10-17T07:59:45.328Z,15.03
2018-10-17T08:02:14.123Z,15.10
2018-10-17T08:04:42.963Z,15.26
2018-10-17T08:07:11.959Z,15.36
2018-10-17T08:09:40.824Z,15.23
2018-10-17T08:12:10.050Z,15.38
2018-10-17T08:14:40.907Z,15.78
2018-10-17T08:17:10.463Z,15.76
2018-10-17T08:19:39.348Z,15.79
2018-10-17T08:22:08.160Z,16.02
2018-10-17T08:24:37.057Z,16.24
2018-10-17T08:27:06.153Z,16.21
2018-10-17T08:29:34.968Z,16.51
2018-10-17T08:32:03.760Z,16.54
2018-10-17T08:34:32.604Z,16.73
2018-10-17T08:37:01.845Z,16.73
2018-10-17T08:39:30.446Z,16.81
2018-10-17T08:41:59.329Z,16.89
2018-10-17T08:44:28.216Z,16.98
2018-10-17T08:46:57.378Z,17.01
2018-10-17T08:49:26.330Z,17.04
2018-10-17T08:51:55.525Z,17.11
2018-10-17T08:54:24.356Z,17.03
2018-10-17T08:56:53.194Z,17.04
2018-10-17T08:59:21.990Z,17.24
2018-10-17T09:01:50.963Z,17.24
2018-10-17T09:04:19.776Z,17.27
2018-10-17T09:06:48.725Z,17.15
2018-10-17T09:09:17.577Z,17.18
2018-10-17T09:11:46.471Z,17.25
2018-10-17T09:14:15.439Z,17.45
2018-10-17T09:16:44.315Z,17.51
2018-10-17T09:19:13.111Z,17.46
2018-10-17T09:21:42.162Z,17.57
2018-10-17T09:24:10.889Z,17.80
2018-10-17T09:26:39.780Z,18.09
2018-10-17T09:29:08.984Z,18.26
2018-10-17T09:31:37.899Z,18.45
2018-10-17T09:34:06.809Z,18.79
2018-10-17T09:36:35.683Z,18.61
2018-10-17T09:39:07.412Z,18.82
2018-10-17T09:41:36.314Z,18.76
2018-10-17T09:44:05.219Z,19.00
2018-10-17T09:46:34.100Z,18.89
2018-10-17T09:49:02.931Z,19.10
2018-10-17T09:51:32.205Z,19.06
2018-10-17T09:54:01.046Z,19.10
2018-10-17T09:56:29.948Z,19.37
2018-10-17T09:58:58.794Z,19.34
2018-10-17T10:01:34.304Z,19.40
2018-10-17T10:04:03.290Z,19.61
2018-10-17T10:06:32.148Z,19.59
2018-10-17T10:09:01.043Z,19.56
2018-10-17T10:11:29.833Z,19.38
2018-10-17T10:13:59.148Z,19.42
2018-10-17T10:16:28.171Z,19.51
2018-10-17T10:18:57.060Z,19.45
2018-10-17T10:21:26.264Z,19.56
2018-10-17T10:23:55.150Z,19.50
2018-10-17T10:26:23.917Z,19.66
2018-10-17T10:28:52.873Z,19.79
2018-10-17T10:31:21.873Z,19.69
2018-10-17T10:33:50.801Z,19.80
2018-10-17T10:36:19.763Z,19.99
2018-10-17T10:38:48.664Z,19.96
2018-10-17T10:41:17.872Z,20.05
2018-10-17T10:43:46.753Z,20.02
2018-10-17T10:46:15.634Z,20.18
2018-10-17T10:48:44.540Z,20.12
2018-10-17T10:51:13.482Z,20.16
2018-10-17T10:53:42.345Z,20.22
2018-10-17T10:56:11.298Z,20.41
2018-10-17T10:58:40.184Z,20.51
2018-10-17T11:01:09.374Z,20.56
2018-10-17T11:03:38.201Z,20.45
2018-10-17T11:06:07.180Z,20.44
2018-10-17T11:08:36.031Z,20.68
2018-10-17T11:11:05.422Z,20.73
2018-10-17T11:13:34.328Z,20.84
2018-10-17T11:16:03.182Z,20.89
2018-10-17T11:18:32.110Z,21.00
2018-10-17T11:21:01.040Z,21.29
2018-10-17T11:23:29.906Z,21.17
2018-10-17T11:25:58.816Z,21.19
2018-10-17T11:28:27.746Z,21.30
2018-10-17T11:30:56.664Z,21.24
2018-10-17T11:33:25.472Z,21.27
2018-10-17T11:35:54.488Z,21.26
2018-10-17T11:38:23.306Z,21.45
2018-10-17T11:40:52.231Z,21.76
2018-10-17T11:43:21.144Z,21.67
2018-10-17T11:45:50.025Z,21.61
2018-10-17T11:48:18.827Z,21.86
2018-10-17T11:50:47.732Z,21.87
2018-10-17T11:53:16.632Z,21.98
2018-10-17T11:55:45.511Z,21.96
2018-10-17T11:58:14.359Z,21.96
2018-10-17T12:00:43.248Z,22.04
2018-10-17T12:03:12.197Z,22.00
2018-10-17T12:05:41.279Z,21.74
2018-10-17T12:08:10.010Z,21.89
2018-10-17T12:10:38.840Z,21.99
2018-10-17T12:13:07.702Z,21.98
2018-10-17T12:15:41.268Z,22.04
2018-10-17T12:18:10.738Z,21.86
2018-10-17T12:20:39.637Z,21.88
2018-10-17T12:23:08.464Z,22.19
2018-10-17T12:25:37.301Z,22.23
2018-10-17T12:28:06.623Z,22.08
2018-10-17T12:30:35.408Z,22.23
2018-10-17T12:33:04.584Z,22.24
2018-10-17T12:35:33.388Z,22.22
2018-10-17T12:38:02.314Z,22.40
2018-10-17T12:40:31.336Z,22.23
2018-10-17T12:43:00.122Z,22.22
2018-10-17T12:45:29.080Z,22.22
2018-10-17T12:47:57.974Z,22.24
2018-10-17T12:50:26.818Z,22.19
2018-10-17T12:52:55.878Z,22.26
2018-10-17T12:55:24.593Z,22.18
2018-10-17T12:57:53.428Z,22.41
2018-10-17T13:00:24.072Z,22.54
2018-10-17T13:02:52.918Z,22.64
2018-10-17T13:05:21.734Z,22.58
2018-10-17T13:07:50.618Z,22.82
2018-10-17T13:10:19.585Z,22.87
2018-10-17T13:12:48.366Z,22.72
2018-10-17T13:15:17.276Z,22.56
2018-10-17T13:17:46.247Z,22.61
2018-10-17T13:20:15.234Z,22.63
2018-10-17T13:22:44.748Z,22.76
2018-10-17T13:25:13.731Z,22.81
2018-10-17T13:27:42.563Z,22.78
2018-10-17T13:30:11.505Z,22.72
2018-10-17T13:32:40.347Z,22.73
2018-10-17T13:35:09.372Z,22.70
2018-10-17T13:37:38.149Z,22.66
2018-10-17T13:40:07.116Z,22.56
2018-10-17T13:42:36.000Z,22.55
2018-10-17T13:45:10.853Z,22.34
2018-10-17T13:47:39.753Z,22.52
2018-10-17T13:50:08.785Z,22.46
2018-10-17T13:52:37.593Z,22.44
2018-10-17T13:55:07.256Z,22.38
2018-10-17T13:57:36.514Z,22.39
2018-10-17T14:00:07.012Z,22.41
2018-10-17T14:02:35.841Z,22.48
2018-10-17T14:05:05.634Z,22.36
2018-10-17T14:07:34.514Z,22.40
2018-10-17T14:10:03.988Z,22.48
2018-10-17T14:12:33.151Z,22.40
2018-10-17T14:15:02.025Z,22.36
2018-10-17T14:17:30.896Z,22.41
2018-10-17T14:19:59.740Z,22.29
2018-10-17T14:22:29.023Z,22.27
2018-10-17T14:24:58.028Z,22.25
2018-10-17T14:27:26.984Z,22.14
2018-10-17T14:29:55.853Z,22.09
2018-10-17T14:32:24.714Z,21.99
2018-10-17T14:34:53.596Z,21.92
2018-10-17T14:37:22.771Z,21.83
2018-10-17T14:39:51.643Z,21.79
2018-10-17T14:42:20.602Z,21.75
2018-10-17T14:44:50.105Z,21.43
2018-10-17T14:47:18.983Z,21.50
2018-10-17T14:49:47.860Z,21.28
2018-10-17T14:52:16.713Z,21.47
2018-10-17T14:54:45.895Z,21.50
2018-10-17T14:57:14.827Z,21.46
2018-10-17T14:59:43.577Z,21.24
2018-10-17T15:02:12.465Z,21.19
2018-10-17T15:04:41.324Z,21.18
2018-10-17T15:07:10.130Z,21.27
2018-10-17T15:09:38.968Z,21.11
2018-10-17T15:12:07.946Z,21.21
2018-10-17T15:14:36.774Z,21.12
2018-10-17T15:17:05.819Z,20.95
2018-10-17T15:19:34.753Z,21.10
2018-10-17T15:22:03.520Z,20.98
2018-10-17T15:24:32.481Z,21.12
2018-10-17T15:27:01.375Z,20.97
2018-10-17T15:29:30.161Z,21.11
2018-10-17T15:31:59.009Z,20.98
2018-10-17T15:34:27.838Z,20.84
2018-10-17T15:36:56.701Z,20.62
2018-10-17T15:39:25.653Z,20.79
2018-10-17T15:41:54.810Z,20.71
2018-10-17T15:44:23.720Z,20.40
2018-10-17T15:46:52.512Z,20.22
2018-10-17T15:49:21.410Z,20.08
2018-10-17T15:51:50.245Z,19.76
2018-10-17T15:54:19.123Z,19.57
2018-10-17T15:56:47.941Z,19.49
2018-10-17T15:59:16.714Z,19.39
2018-10-17T16:01:45.574Z,19.22
2018-10-17T16:04:14.774Z,19.10
2018-10-17T16:06:43.752Z,19.06
2018-10-17T16:09:13.067Z,18.88
2018-10-17T16:11:42.102Z,18.71
2018-10-17T16:14:10.855Z,18.63
2018-10-17T16:16:39.741Z,18.49
2018-10-17T16:19:08.593Z,18.32
2018-10-17T16:21:37.456Z,18.10
2018-10-17T16:24:06.469Z,18.04
2018-10-17T16:26:35.344Z,17.97
2018-10-17T16:29:04.229Z,17.90
2018-10-17T16:31:33.032Z,17.87
2018-10-17T16:34:01.881Z,17.76
2018-10-17T16:36:30.707Z,17.68
2018-10-17T16:38:59.543Z,17.71
2018-10-17T16:41:28.623Z,17.53
2018-10-17T16:43:57.423Z,17.41
2018-10-17T16:46:26.270Z,17.46
2018-10-17T16:48:55.089Z,17.21
2018-10-17T16:51:24.039Z,17.35
2018-10-17T16:53:52.941Z,17.20
2018-10-17T16:56:21.853Z,17.17
2018-10-17T16:58:50.681Z,17.04
2018-10-17T17:01:19.827Z,17.08
2018-10-17T17:03:48.758Z,17.03
2018-10-17T17:06:18.023Z,16.90
2018-10-17T17:08:46.908Z,16.88
2018-10-17T17:11:15.692Z,16.76
2018-10-17T17:13:44.597Z,16.67
2018-10-17T17:16:13.479Z,16.65
2018-10-17T17:18:42.373Z,16.61
2018-10-17T17:21:11.261Z,16.54
2018-10-17T17:23:40.012Z,16.55
2018-10-17T17:26:08.883Z,16.50
2018-10-17T17:28:37.735Z,16.42
2018-10-17T17:31:06.709Z,16.44
2018-10-17T17:33:35.608Z,16.34
2018-10-17T17:36:04.657Z,16.38
2018-10-17T17:38:33.843Z,16.29
2018-10-17T17:41:02.656Z,16.35
2018-10-17T17:43:31.953Z,16.33
2018-10-17T17:46:01.428Z,16.27
2018-10-17T17:48:30.293Z,16.19
2018-10-17T17:50:59.150Z,16.19
2018-10-17T17:53:28.351Z,16.06
2018-10-17T17:55:57.279Z,16.02
2018-10-17T17:58:26.928Z,15.93
2018-10-17T18:00:56.047Z,15.97
2018-10-17T18:03:24.911Z,15.84
2018-10-17T18:05:53.815Z,15.80
2018-10-17T18:08:24.038Z,15.84
2018-10-17T18:10:53.436Z,15.84
2018-10-17T18:13:22.256Z,15.72
2018-10-17T18:15:51.228Z,15.56
2018-10-17T18:18:19.992Z,15.78
2018-10-17T18:20:49.095Z,15.65
2018-10-17T18:23:17.843Z,15.66
2018-10-17T18:25:47.341Z,15.41
2018-10-17T18:28:16.297Z,15.47
2018-10-17T18:30:45.033Z,15.49
2018-10-17T18:33:14.249Z,15.48
2018-10-17T18:35:43.106Z,15.37
2018-10-17T18:38:12.079Z,15.41
2018-10-17T18:40:41.125Z,15.33
2018-10-17T18:43:09.905Z,15.28
2018-10-17T18:45:39.783Z,15.29
2018-10-17T18:48:08.698Z,15.16
2018-10-17T18:50:37.525Z,15.13
2018-10-17T18:53:06.374Z,15.09
2018-10-17T18:55:35.177Z,15.04
2018-10-17T18:58:04.192Z,15.01
2018-10-17T19:00:33.335Z,14.91
2018-10-17T19:03:02.210Z,14.88
2018-10-17T19:05:30.971Z,14.94
2018-10-17T19:07:59.857Z,14.95
2018-10-17T19:10:28.732Z,14.90
2018-10-17T19:12:57.630Z,14.85
2018-10-17T19:15:26.417Z,14.72
2018-10-17T19:17:55.546Z,14.65
2018-10-17T19:20:24.852Z,14.59
2018-10-17T19:22:54.792Z,14.66
2018-10-17T19:25:23.961Z,14.63
2018-10-17T19:27:52.881Z,14.58
2018-10-17T19:30:21.810Z,14.50
2018-10-17T19:32:50.640Z,14.58
2018-10-17T19:35:19.499Z,14.44
2018-10-17T19:37:54.407Z,14.29
2018-10-17T19:40:23.251Z,14.25
2018-10-17T19:42:52.150Z,14.18
2018-10-17T19:45:26.309Z,14.17
2018-10-17T19:48:01.237Z,14.20
2018-10-17T19:50:36.001Z,14.10
2018-10-17T19:53:11.296Z,13.99
2018-10-17T19:55:46.222Z,14.16
2018-10-17T19:58:21.082Z,14.11
2018-10-17T20:00:49.921Z,14.11
2018-10-17T20:03:18.728Z,14.03
2018-10-17T20:05:47.624Z,14.03
2018-10-17T20:08:16.432Z,14.05
2018-10-17T20:10:45.278Z,14.03
2018-10-17T20:13:14.044Z,13.99
2018-10-17T20:15:42.970Z,13.95
2018-10-17T20:18:11.851Z,13.91
2018-10-17T20:20:40.672Z,13.90
2018-10-17T20:23:09.511Z,13.76
2018-10-17T20:25:38.382Z,13.81
2018-10-17T20:28:07.192Z,13.91
2018-10-17T20:30:36.267Z,13.88
2018-10-17T20:33:05.190Z,13.81
2018-10-17T20:35:34.058Z,13.74
2018-10-17T20:38:02.857Z,13.61
2018-10-17T20:40:31.783Z,13.69
2018-10-17T20:43:00.698Z,13.60
2018-10-17T20:45:29.648Z,13.28
2018-10-17T20:47:58.469Z,13.26
2018-10-17T20:50:27.305Z,13.24
2018-10-17T20:52:56.202Z,13.27
2018-10-17T20:55:25.087Z,13.49
2018-10-17T20:57:53.872Z,13.56
2018-10-17T21:00:22.730Z,13.37
2018-10-17T21:02:51.534Z,13.28
2018-10-17T21:05:20.346Z,13.27
2018-10-17T21:07:49.404Z,13.17
2018-10-17T21:10:18.189Z,13.20
2018-10-17T21:12:47.060Z,13.21
2018-10-17T21:15:15.841Z,13.25
2018-10-17T21:17:44.765Z,13.46
2018-10-17T21:20:13.662Z,13.43
2018-10-17T21:22:42.725Z,13.37
2018-10-17T21:25:11.557Z,13.31
2018-10-17T21:27:40.433Z,13.44
2018-10-17T21:30:10.075Z,13.32
2018-10-17T21:32:39.025Z,13.24
2018-10-17T21:35:07.971Z,13.12
2018-10-17T21:37:37.140Z,13.14
2018-10-17T21:40:06.567Z,13.04
2018-10-17T21:42:36.316Z,12.96
2018-10-17T21:45:11.666Z,13.01
2018-10-17T21:47:40.848Z,13.00
2018-10-17T21:50:09.913Z,12.99
2018-10-17T21:52:38.894Z,13.00
2018-10-17T21:55:07.877Z,12.99
2018-10-17T21:57:36.756Z,12.88
2018-10-17T22:00:08.557Z,12.91
2018-10-17T22:02:37.518Z,12.84
2018-10-17T22:05:08.543Z,12.82
2018-10-17T22:07:37.493Z,12.68
2018-10-17T22:10:07.216Z,12.76
2018-10-17T22:12:36.192Z,12.78
2018-10-17T22:15:06.968Z,12.59
2018-10-17T22:17:35.798Z,12.41
2018-10-17T22:20:05.534Z,12.17
2018-10-17T22:22:34.309Z,12.34
2018-10-17T22:25:03.261Z,12.31
2018-10-17T22:27:32.121Z,12.05
2018-10-17T22:30:01.035Z,12.02
2018-10-17T22:32:29.912Z,12.24
2018-10-17T22:34:58.825Z,12.13
2018-10-17T22:37:28.048Z,11.90
2018-10-17T22:39:57.276Z,11.88
2018-10-17T22:42:26.078Z,11.98
2018-10-17T22:44:54.989Z,12.23
2018-10-17T22:47:23.828Z,12.27
2018-10-17T22:49:52.678Z,12.23
2018-10-17T22:52:21.525Z,11.93
2018-10-17T22:54:50.399Z,12.05
2018-10-17T22:57:19.313Z,12.16
2018-10-17T22:59:48.189Z,12.17
2018-10-17T23:02:17.019Z,12.17
2018-10-17T23:04:45.854Z,12.26
2018-10-17T23:07:14.742Z,12.34
2018-10-17T23:09:43.611Z,12.16
2018-10-17T23:12:12.531Z,12.30
2018-10-17T23:14:41.353Z,12.30
2018-10-17T23:17:10.235Z,12.26
2018-10-17T23:19:39.050Z,12.34
2018-10-17T23:22:07.982Z,12.34
2018-10-17T23:24:37.050Z,12.35
2018-10-17T23:27:05.955Z,12.29
2018-10-17T23:29:34.800Z,12.05
2018-10-17T23:32:03.728Z,12.19
2018-10-17T23:34:32.624Z,12.29
2018-10-17T23:37:01.490Z,12.18
2018-10-17T23:39:30.269Z,12.16
2018-10-17T23:41:59.207Z,12.19
2018-10-17T23:44:28.062Z,11.97
2018-10-17T23:46:57.070Z,12.11
2018-10-17T23:49:25.891Z,12.07
2018-10-17T23:51:54.738Z,12.06
2018-10-17T23:54:23.547Z,11.82
2018-10-17T23:56:52.451Z,11.90
2018-10-17T23:59:21.406Z,11.92
